sensor_id;sensor_type;location;lat;lon;timestamp;temperature;humidity
17728;DHT22;8984;49.268;12.302;2022-08-11T00:01:10;17.50;95.70
17728;DHT22;8984;49.268;12.302;2022-08-11T00:03:43;17.50;95.90
17728;DHT22;8984;49.268;12.302;2022-08-11T00:06:11;17.50;96.10
17728;DHT22;8984;49.268;12.302;2022-08-11T00:08:41;17.40;96.10
17728;DHT22;8984;49.268;12.302;2022-08-11T00:11:10;17.40;96.10
17728;DHT22;8984;49.268;12.302;2022-08-11T00:13:42;17.40;96.40
17728;DHT22;8984;49.268;12.302;2022-08-11T00:16:13;17.40;96.50
17728;DHT22;8984;49.268;12.302;2022-08-11T00:18:43;17.30;96.80
17728;DHT22;8984;49.268;12.302;2022-08-11T00:21:12;17.30;96.80
17728;DHT22;8984;49.268;12.302;2022-08-11T00:23:42;17.30;96.50
17728;DHT22;8984;49.268;12.302;2022-08-11T00:26:11;17.30;96.60
17728;DHT22;8984;49.268;12.302;2022-08-11T00:28:40;17.30;96.50
17728;DHT22;8984;49.268;12.302;2022-08-11T00:31:10;17.30;96.60
17728;DHT22;8984;49.268;12.302;2022-08-11T00:33:45;17.30;96.80
17728;DHT22;8984;49.268;12.302;2022-08-11T00:36:15;17.20;97.40
17728;DHT22;8984;49.268;12.302;2022-08-11T00:38:44;17.10;97.50
17728;DHT22;8984;49.268;12.302;2022-08-11T00:41:27;17.20;97.10
17728;DHT22;8984;49.268;12.302;2022-08-11T00:44:21;17.20;96.90
17728;DHT22;8984;49.268;12.302;2022-08-11T00:46:58;17.20;97.50
17728;DHT22;8984;49.268;12.302;2022-08-11T00:49:39;17.20;97.90
17728;DHT22;8984;49.268;12.302;2022-08-11T00:52:15;17.20;97.90
17728;DHT22;8984;49.268;12.302;2022-08-11T01:01:19;17.20;98.20
17728;DHT22;8984;49.268;12.302;2022-08-11T01:04:29;17.10;98.50
17728;DHT22;8984;49.268;12.302;2022-08-11T01:07:23;17.10;98.80
17728;DHT22;8984;49.268;12.302;2022-08-11T01:10:06;17.10;98.60
17728;DHT22;8984;49.268;12.302;2022-08-11T01:12:49;17.10;98.10
17728;DHT22;8984;49.268;12.302;2022-08-11T01:15:48;17.10;98.60
17728;DHT22;8984;49.268;12.302;2022-08-11T01:18:49;17.10;98.40
17728;DHT22;8984;49.268;12.302;2022-08-11T01:22:04;17.10;98.50
17728;DHT22;8984;49.268;12.302;2022-08-11T01:25:07;17.00;98.80
17728;DHT22;8984;49.268;12.302;2022-08-11T01:31:06;17.10;98.50
17728;DHT22;8984;49.268;12.302;2022-08-11T01:37:25;17.00;98.40
17728;DHT22;8984;49.268;12.302;2022-08-11T01:40:22;17.00;98.70
17728;DHT22;8984;49.268;12.302;2022-08-11T01:46:34;16.80;99.00
17728;DHT22;8984;49.268;12.302;2022-08-11T01:49:09;16.70;99.90
17728;DHT22;8984;49.268;12.302;2022-08-11T01:51:56;16.60;99.90
17728;DHT22;8984;49.268;12.302;2022-08-11T01:54:31;16.60;99.90
17728;DHT22;8984;49.268;12.302;2022-08-11T01:57:11;16.60;99.90
17728;DHT22;8984;49.268;12.302;2022-08-11T01:59:48;16.50;99.90
17728;DHT22;8984;49.268;12.302;2022-08-11T02:02:27;16.50;99.90
17728;DHT22;8984;49.268;12.302;2022-08-11T02:05:19;16.50;99.90
17728;DHT22;8984;49.268;12.302;2022-08-11T02:07:55;16.40;99.90
17728;DHT22;8984;49.268;12.302;2022-08-11T02:10:29;16.40;99.90
17728;DHT22;8984;49.268;12.302;2022-08-11T02:13:21;16.40;99.90
17728;DHT22;8984;49.268;12.302;2022-08-11T02:15:54;16.30;99.90
17728;DHT22;8984;49.268;12.302;2022-08-11T02:18:27;16.30;99.90
17728;DHT22;8984;49.268;12.302;2022-08-11T02:21:23;16.20;99.90
17728;DHT22;8984;49.268;12.302;2022-08-11T02:24:15;16.20;99.90
17728;DHT22;8984;49.268;12.302;2022-08-11T02:26:49;16.10;99.90
17728;DHT22;8984;49.268;12.302;2022-08-11T02:29:20;16.10;99.90
17728;DHT22;8984;49.268;12.302;2022-08-11T02:32:08;16.00;99.90
17728;DHT22;8984;49.268;12.302;2022-08-11T02:35:03;16.10;99.90
17728;DHT22;8984;49.268;12.302;2022-08-11T02:37:39;16.00;99.90
17728;DHT22;8984;49.268;12.302;2022-08-11T02:40:16;16.00;99.90
17728;DHT22;8984;49.268;12.302;2022-08-11T02:43:00;15.90;99.90
17728;DHT22;8984;49.268;12.302;2022-08-11T02:45:50;15.70;99.90
17728;DHT22;8984;49.268;12.302;2022-08-11T02:48:32;15.70;99.90
17728;DHT22;8984;49.268;12.302;2022-08-11T02:51:26;15.60;99.90
17728;DHT22;8984;49.268;12.302;2022-08-11T02:54:02;15.60;99.90
17728;DHT22;8984;49.268;12.302;2022-08-11T02:56:40;15.50;99.90
17728;DHT22;8984;49.268;12.302;2022-08-11T02:59:25;15.50;99.90
17728;DHT22;8984;49.268;12.302;2022-08-11T03:02:16;15.50;99.90
17728;DHT22;8984;49.268;12.302;2022-08-11T03:04:59;15.40;99.90
17728;DHT22;8984;49.268;12.302;2022-08-11T03:07:32;15.40;99.90
17728;DHT22;8984;49.268;12.302;2022-08-11T03:10:07;15.40;99.90
17728;DHT22;8984;49.268;12.302;2022-08-11T03:12:43;15.40;99.90
17728;DHT22;8984;49.268;12.302;2022-08-11T03:15:37;15.40;99.90
17728;DHT22;8984;49.268;12.302;2022-08-11T03:18:27;15.40;99.90
17728;DHT22;8984;49.268;12.302;2022-08-11T03:21:01;15.40;99.90
17728;DHT22;8984;49.268;12.302;2022-08-11T03:23:38;15.40;99.90
17728;DHT22;8984;49.268;12.302;2022-08-11T03:26:14;15.30;99.90
17728;DHT22;8984;49.268;12.302;2022-08-11T03:28:55;15.30;99.90
17728;DHT22;8984;49.268;12.302;2022-08-11T03:31:29;15.30;99.90
17728;DHT22;8984;49.268;12.302;2022-08-11T03:34:02;15.30;99.90
17728;DHT22;8984;49.268;12.302;2022-08-11T03:37:04;15.30;99.90
17728;DHT22;8984;49.268;12.302;2022-08-11T03:39:46;15.30;99.90
17728;DHT22;8984;49.268;12.302;2022-08-11T03:42:21;15.20;99.90
17728;DHT22;8984;49.268;12.302;2022-08-11T03:44:59;15.10;99.90
17728;DHT22;8984;49.268;12.302;2022-08-11T03:47:42;15.10;99.90
17728;DHT22;8984;49.268;12.302;2022-08-11T03:50:26;15.00;99.90
17728;DHT22;8984;49.268;12.302;2022-08-11T03:53:09;15.00;99.90
17728;DHT22;8984;49.268;12.302;2022-08-11T03:59:36;15.00;99.90
17728;DHT22;8984;49.268;12.302;2022-08-11T04:05:37;15.00;99.90
17728;DHT22;8984;49.268;12.302;2022-08-11T04:08:42;15.00;99.90
17728;DHT22;8984;49.268;12.302;2022-08-11T04:14:50;14.90;99.90
17728;DHT22;8984;49.268;12.302;2022-08-11T04:18:05;14.90;99.90
17728;DHT22;8984;49.268;12.302;2022-08-11T04:21:11;15.00;99.90
17728;DHT22;8984;49.268;12.302;2022-08-11T04:27:11;15.00;99.90
17728;DHT22;8984;49.268;12.302;2022-08-11T04:30:00;15.10;99.90
17728;DHT22;8984;49.268;12.302;2022-08-11T04:33:01;15.70;99.90
17728;DHT22;8984;49.268;12.302;2022-08-11T04:35:38;16.50;99.90
17728;DHT22;8984;49.268;12.302;2022-08-11T04:38:37;17.30;99.90
17728;DHT22;8984;49.268;12.302;2022-08-11T04:41:31;18.30;99.90
17728;DHT22;8984;49.268;12.302;2022-08-11T04:44:31;19.20;99.00
17728;DHT22;8984;49.268;12.302;2022-08-11T04:47:31;20.10;97.40
17728;DHT22;8984;49.268;12.302;2022-08-11T04:50:29;20.80;95.80
17728;DHT22;8984;49.268;12.302;2022-08-11T04:53:41;21.50;94.40
17728;DHT22;8984;49.268;12.302;2022-08-11T04:56:28;22.30;92.90
17728;DHT22;8984;49.268;12.302;2022-08-11T04:59:52;22.90;91.60
17728;DHT22;8984;49.268;12.302;2022-08-11T05:06:09;24.20;88.50
17728;DHT22;8984;49.268;12.302;2022-08-11T05:09:15;24.60;86.30
17728;DHT22;8984;49.268;12.302;2022-08-11T05:12:14;25.00;84.90
17728;DHT22;8984;49.268;12.302;2022-08-11T05:14:50;25.10;83.60
17728;DHT22;8984;49.268;12.302;2022-08-11T05:17:57;25.30;84.00
17728;DHT22;8984;49.268;12.302;2022-08-11T05:20:49;25.60;83.30
17728;DHT22;8984;49.268;12.302;2022-08-11T05:23:35;25.80;82.30
17728;DHT22;8984;49.268;12.302;2022-08-11T05:26:24;25.80;82.20
17728;DHT22;8984;49.268;12.302;2022-08-11T05:29:26;25.90;82.10
17728;DHT22;8984;49.268;12.302;2022-08-11T05:32:14;25.80;82.10
17728;DHT22;8984;49.268;12.302;2022-08-11T05:35:03;25.60;82.70
17728;DHT22;8984;49.268;12.302;2022-08-11T05:37:37;25.60;83.20
17728;DHT22;8984;49.268;12.302;2022-08-11T05:40:06;25.40;83.50
17728;DHT22;8984;49.268;12.302;2022-08-11T05:42:55;25.30;83.90
17728;DHT22;8984;49.268;12.302;2022-08-11T05:45:40;25.20;84.40
17728;DHT22;8984;49.268;12.302;2022-08-11T05:48:29;25.10;85.00
17728;DHT22;8984;49.268;12.302;2022-08-11T05:51:15;25.10;85.10
17728;DHT22;8984;49.268;12.302;2022-08-11T05:54:03;25.10;84.90
17728;DHT22;8984;49.268;12.302;2022-08-11T05:56:51;25.10;85.30
17728;DHT22;8984;49.268;12.302;2022-08-11T05:59:22;25.10;85.40
17728;DHT22;8984;49.268;12.302;2022-08-11T06:01:50;25.10;85.60
17728;DHT22;8984;49.268;12.302;2022-08-11T06:04:19;25.10;85.60
17728;DHT22;8984;49.268;12.302;2022-08-11T06:06:56;25.10;86.00
17728;DHT22;8984;49.268;12.302;2022-08-11T06:09:27;25.30;85.60
17728;DHT22;8984;49.268;12.302;2022-08-11T06:11:58;25.50;85.20
17728;DHT22;8984;49.268;12.302;2022-08-11T06:14:27;25.70;85.30
17728;DHT22;8984;49.268;12.302;2022-08-11T06:16:56;25.90;84.80
17728;DHT22;8984;49.268;12.302;2022-08-11T06:19:32;26.00;84.30
17728;DHT22;8984;49.268;12.302;2022-08-11T06:22:01;26.20;84.30
17728;DHT22;8984;49.268;12.302;2022-08-11T06:24:29;26.50;83.00
17728;DHT22;8984;49.268;12.302;2022-08-11T06:26:57;26.70;81.70
17728;DHT22;8984;49.268;12.302;2022-08-11T06:29:27;26.80;80.70
17728;DHT22;8984;49.268;12.302;2022-08-11T06:31:56;27.00;79.70
17728;DHT22;8984;49.268;12.302;2022-08-11T06:34:32;26.90;79.10
17728;DHT22;8984;49.268;12.302;2022-08-11T06:37:12;26.90;79.10
17728;DHT22;8984;49.268;12.302;2022-08-11T06:39:46;26.80;78.50
17728;DHT22;8984;49.268;12.302;2022-08-11T06:42:37;26.50;79.10
17728;DHT22;8984;49.268;12.302;2022-08-11T06:45:19;26.10;78.90
17728;DHT22;8984;49.268;12.302;2022-08-11T06:47:49;25.90;79.50
17728;DHT22;8984;49.268;12.302;2022-08-11T06:50:19;25.60;80.30
17728;DHT22;8984;49.268;12.302;2022-08-11T06:53:05;25.40;80.20
17728;DHT22;8984;49.268;12.302;2022-08-11T06:55:36;25.20;80.90
17728;DHT22;8984;49.268;12.302;2022-08-11T06:58:26;25.00;81.00
17728;DHT22;8984;49.268;12.302;2022-08-11T07:01:16;24.80;81.30
17728;DHT22;8984;49.268;12.302;2022-08-11T07:03:48;25.00;81.30
17728;DHT22;8984;49.268;12.302;2022-08-11T07:06:33;24.80;81.50
17728;DHT22;8984;49.268;12.302;2022-08-11T07:09:24;24.80;81.10
17728;DHT22;8984;49.268;12.302;2022-08-11T07:12:37;24.80;80.20
17728;DHT22;8984;49.268;12.302;2022-08-11T07:15:26;24.60;81.20
17728;DHT22;8984;49.268;12.302;2022-08-11T07:18:15;24.50;82.00
17728;DHT22;8984;49.268;12.302;2022-08-11T07:21:14;24.50;80.90
17728;DHT22;8984;49.268;12.302;2022-08-11T07:24:03;24.60;81.20
17728;DHT22;8984;49.268;12.302;2022-08-11T07:26:53;24.60;80.90
17728;DHT22;8984;49.268;12.302;2022-08-11T07:29:38;24.60;80.60
17728;DHT22;8984;49.268;12.302;2022-08-11T07:32:14;24.90;80.80
17728;DHT22;8984;49.268;12.302;2022-08-11T07:34:50;25.10;80.80
17728;DHT22;8984;49.268;12.302;2022-08-11T07:37:22;25.10;79.40
17728;DHT22;8984;49.268;12.302;2022-08-11T07:39:52;25.10;79.60
17728;DHT22;8984;49.268;12.302;2022-08-11T07:42:22;25.30;79.30
17728;DHT22;8984;49.268;12.302;2022-08-11T07:44:54;25.50;78.90
17728;DHT22;8984;49.268;12.302;2022-08-11T07:47:40;25.60;78.10
17728;DHT22;8984;49.268;12.302;2022-08-11T07:50:27;25.70;77.00
17728;DHT22;8984;49.268;12.302;2022-08-11T07:53:13;25.70;76.80
17728;DHT22;8984;49.268;12.302;2022-08-11T07:55:41;25.60;78.10
17728;DHT22;8984;49.268;12.302;2022-08-11T07:58:09;25.90;77.20
17728;DHT22;8984;49.268;12.302;2022-08-11T08:00:56;25.90;76.20
17728;DHT22;8984;49.268;12.302;2022-08-11T08:03:41;25.60;76.90
17728;DHT22;8984;49.268;12.302;2022-08-11T08:06:28;25.50;78.00
17728;DHT22;8984;49.268;12.302;2022-08-11T08:09:16;25.30;76.30
17728;DHT22;8984;49.268;12.302;2022-08-11T08:12:02;25.40;76.30
17728;DHT22;8984;49.268;12.302;2022-08-11T08:14:48;25.30;77.40
17728;DHT22;8984;49.268;12.302;2022-08-11T08:17:33;25.30;77.10
17728;DHT22;8984;49.268;12.302;2022-08-11T08:20:24;25.50;76.80
17728;DHT22;8984;49.268;12.302;2022-08-11T08:22:54;25.40;76.30
17728;DHT22;8984;49.268;12.302;2022-08-11T08:25:23;25.40;76.30
17728;DHT22;8984;49.268;12.302;2022-08-11T08:27:52;25.20;76.10
17728;DHT22;8984;49.268;12.302;2022-08-11T08:30:19;25.50;75.60
17728;DHT22;8984;49.268;12.302;2022-08-11T08:33:04;25.50;76.30
17728;DHT22;8984;49.268;12.302;2022-08-11T08:35:31;25.60;75.80
17728;DHT22;8984;49.268;12.302;2022-08-11T08:37:59;25.70;75.10
17728;DHT22;8984;49.268;12.302;2022-08-11T08:40:27;25.80;74.70
17728;DHT22;8984;49.268;12.302;2022-08-11T08:42:55;25.80;74.60
17728;DHT22;8984;49.268;12.302;2022-08-11T08:45:23;25.60;74.40
17728;DHT22;8984;49.268;12.302;2022-08-11T08:47:56;25.80;74.50
17728;DHT22;8984;49.268;12.302;2022-08-11T08:50:27;25.80;73.40
17728;DHT22;8984;49.268;12.302;2022-08-11T08:53:20;25.70;71.80
17728;DHT22;8984;49.268;12.302;2022-08-11T08:55:49;26.20;72.40
17728;DHT22;8984;49.268;12.302;2022-08-11T08:58:19;26.20;70.80
17728;DHT22;8984;49.268;12.302;2022-08-11T09:00:49;26.40;70.50
17728;DHT22;8984;49.268;12.302;2022-08-11T09:03:17;26.50;69.60
17728;DHT22;8984;49.268;12.302;2022-08-11T09:05:45;26.70;68.70
17728;DHT22;8984;49.268;12.302;2022-08-11T09:08:14;26.60;68.40
17728;DHT22;8984;49.268;12.302;2022-08-11T09:10:45;26.50;66.70
17728;DHT22;8984;49.268;12.302;2022-08-11T09:13:13;26.20;67.90
17728;DHT22;8984;49.268;12.302;2022-08-11T09:15:41;26.00;68.50
17728;DHT22;8984;49.268;12.302;2022-08-11T09:18:08;25.80;68.50
17728;DHT22;8984;49.268;12.302;2022-08-11T09:20:36;25.90;67.90
17728;DHT22;8984;49.268;12.302;2022-08-11T09:23:05;26.10;67.30
17728;DHT22;8984;49.268;12.302;2022-08-11T09:25:54;26.20;67.70
17728;DHT22;8984;49.268;12.302;2022-08-11T09:28:41;26.20;68.40
17728;DHT22;8984;49.268;12.302;2022-08-11T09:31:09;26.10;68.80
17728;DHT22;8984;49.268;12.302;2022-08-11T09:33:37;26.00;69.00
17728;DHT22;8984;49.268;12.302;2022-08-11T09:36:06;26.00;68.60
17728;DHT22;8984;49.268;12.302;2022-08-11T09:38:47;25.90;69.40
17728;DHT22;8984;49.268;12.302;2022-08-11T09:41:38;26.10;70.70
17728;DHT22;8984;49.268;12.302;2022-08-11T09:44:07;26.00;70.90
17728;DHT22;8984;49.268;12.302;2022-08-11T09:46:54;26.20;70.30
17728;DHT22;8984;49.268;12.302;2022-08-11T09:49:25;26.40;70.20
17728;DHT22;8984;49.268;12.302;2022-08-11T09:51:53;26.70;70.20
17728;DHT22;8984;49.268;12.302;2022-08-11T09:54:21;26.60;69.20
17728;DHT22;8984;49.268;12.302;2022-08-11T09:56:52;26.80;68.70
17728;DHT22;8984;49.268;12.302;2022-08-11T09:59:37;26.90;68.70
17728;DHT22;8984;49.268;12.302;2022-08-11T10:02:06;27.00;67.20
17728;DHT22;8984;49.268;12.302;2022-08-11T10:04:39;27.10;65.20
17728;DHT22;8984;49.268;12.302;2022-08-11T10:07:06;27.00;65.40
17728;DHT22;8984;49.268;12.302;2022-08-11T10:09:39;27.10;64.80
17728;DHT22;8984;49.268;12.302;2022-08-11T10:12:11;27.10;65.50
17728;DHT22;8984;49.268;12.302;2022-08-11T10:14:43;27.30;64.20
17728;DHT22;8984;49.268;12.302;2022-08-11T10:17:31;27.10;63.00
17728;DHT22;8984;49.268;12.302;2022-08-11T10:20:01;27.00;63.00
17728;DHT22;8984;49.268;12.302;2022-08-11T10:22:33;27.10;63.50
17728;DHT22;8984;49.268;12.302;2022-08-11T10:25:19;27.00;63.70
17728;DHT22;8984;49.268;12.302;2022-08-11T10:28:07;27.10;63.70
17728;DHT22;8984;49.268;12.302;2022-08-11T10:30:36;27.50;62.40
17728;DHT22;8984;49.268;12.302;2022-08-11T10:33:21;27.60;61.90
17728;DHT22;8984;49.268;12.302;2022-08-11T10:36:06;27.90;62.10
17728;DHT22;8984;49.268;12.302;2022-08-11T10:38:34;27.80;62.70
17728;DHT22;8984;49.268;12.302;2022-08-11T10:41:01;28.00;62.10
17728;DHT22;8984;49.268;12.302;2022-08-11T10:43:52;28.40;63.20
17728;DHT22;8984;49.268;12.302;2022-08-11T10:46:20;28.70;63.30
17728;DHT22;8984;49.268;12.302;2022-08-11T10:49:04;28.80;61.00
17728;DHT22;8984;49.268;12.302;2022-08-11T10:51:32;28.80;60.90
17728;DHT22;8984;49.268;12.302;2022-08-11T10:54:17;28.90;60.80
17728;DHT22;8984;49.268;12.302;2022-08-11T10:57:02;28.90;61.70
17728;DHT22;8984;49.268;12.302;2022-08-11T10:59:47;28.60;62.90
17728;DHT22;8984;49.268;12.302;2022-08-11T11:02:15;28.80;62.00
17728;DHT22;8984;49.268;12.302;2022-08-11T11:04:56;28.90;62.00
17728;DHT22;8984;49.268;12.302;2022-08-11T11:07:34;29.00;60.00
17728;DHT22;8984;49.268;12.302;2022-08-11T11:10:04;29.20;59.70
17728;DHT22;8984;49.268;12.302;2022-08-11T11:12:34;29.20;60.20
17728;DHT22;8984;49.268;12.302;2022-08-11T11:15:23;28.80;59.70
17728;DHT22;8984;49.268;12.302;2022-08-11T11:18:10;29.30;60.10
17728;DHT22;8984;49.268;12.302;2022-08-11T11:20:40;29.30;59.70
17728;DHT22;8984;49.268;12.302;2022-08-11T11:23:17;29.10;58.90
17728;DHT22;8984;49.268;12.302;2022-08-11T11:26:09;29.20;59.60
17728;DHT22;8984;49.268;12.302;2022-08-11T11:29:02;29.10;59.60
17728;DHT22;8984;49.268;12.302;2022-08-11T11:31:45;28.90;59.50
17728;DHT22;8984;49.268;12.302;2022-08-11T11:34:22;28.70;60.00
17728;DHT22;8984;49.268;12.302;2022-08-11T11:36:55;28.80;59.50
17728;DHT22;8984;49.268;12.302;2022-08-11T11:39:25;29.10;59.00
17728;DHT22;8984;49.268;12.302;2022-08-11T11:41:54;29.10;57.90
17728;DHT22;8984;49.268;12.302;2022-08-11T11:44:22;29.10;57.70
17728;DHT22;8984;49.268;12.302;2022-08-11T11:46:51;29.00;57.70
17728;DHT22;8984;49.268;12.302;2022-08-11T11:49:23;29.10;58.20
17728;DHT22;8984;49.268;12.302;2022-08-11T11:51:52;29.30;58.80
17728;DHT22;8984;49.268;12.302;2022-08-11T11:54:22;29.40;57.80
17728;DHT22;8984;49.268;12.302;2022-08-11T11:56:50;29.40;57.20
17728;DHT22;8984;49.268;12.302;2022-08-11T11:59:19;29.40;57.20
17728;DHT22;8984;49.268;12.302;2022-08-11T12:02:05;29.20;56.80
17728;DHT22;8984;49.268;12.302;2022-08-11T12:04:33;29.40;57.10
17728;DHT22;8984;49.268;12.302;2022-08-11T12:07:03;29.60;56.90
17728;DHT22;8984;49.268;12.302;2022-08-11T12:09:48;29.70;56.80
17728;DHT22;8984;49.268;12.302;2022-08-11T12:12:16;29.80;55.60
17728;DHT22;8984;49.268;12.302;2022-08-11T12:15:01;30.20;56.00
17728;DHT22;8984;49.268;12.302;2022-08-11T12:17:30;30.30;56.20
17728;DHT22;8984;49.268;12.302;2022-08-11T12:19:57;30.20;57.10
17728;DHT22;8984;49.268;12.302;2022-08-11T12:22:24;30.10;56.80
17728;DHT22;8984;49.268;12.302;2022-08-11T12:25:09;29.90;57.30
17728;DHT22;8984;49.268;12.302;2022-08-11T12:27:54;29.90;57.40
17728;DHT22;8984;49.268;12.302;2022-08-11T12:30:21;29.90;56.80
17728;DHT22;8984;49.268;12.302;2022-08-11T12:32:50;29.60;56.90
17728;DHT22;8984;49.268;12.302;2022-08-11T12:35:17;29.60;56.60
17728;DHT22;8984;49.268;12.302;2022-08-11T12:37:47;29.50;57.30
17728;DHT22;8984;49.268;12.302;2022-08-11T12:40:18;29.80;57.70
17728;DHT22;8984;49.268;12.302;2022-08-11T12:43:07;29.60;57.80
17728;DHT22;8984;49.268;12.302;2022-08-11T12:45:56;29.70;57.70
17728;DHT22;8984;49.268;12.302;2022-08-11T12:48:29;29.90;58.10
17728;DHT22;8984;49.268;12.302;2022-08-11T12:51:19;30.00;57.90
17728;DHT22;8984;49.268;12.302;2022-08-11T12:54:09;30.10;57.20
17728;DHT22;8984;49.268;12.302;2022-08-11T12:56:38;30.10;56.90
17728;DHT22;8984;49.268;12.302;2022-08-11T12:59:25;30.10;57.20
17728;DHT22;8984;49.268;12.302;2022-08-11T13:02:15;30.00;57.40
17728;DHT22;8984;49.268;12.302;2022-08-11T13:05:02;29.70;57.40
17728;DHT22;8984;49.268;12.302;2022-08-11T13:07:30;29.40;57.20
17728;DHT22;8984;49.268;12.302;2022-08-11T13:10:00;29.50;57.40
17728;DHT22;8984;49.268;12.302;2022-08-11T13:12:30;29.50;57.40
17728;DHT22;8984;49.268;12.302;2022-08-11T13:15:15;29.50;57.30
17728;DHT22;8984;49.268;12.302;2022-08-11T13:17:44;29.70;57.30
17728;DHT22;8984;49.268;12.302;2022-08-11T13:20:15;29.60;57.00
17728;DHT22;8984;49.268;12.302;2022-08-11T13:22:46;29.70;57.00
17728;DHT22;8984;49.268;12.302;2022-08-11T13:25:16;29.80;57.30
17728;DHT22;8984;49.268;12.302;2022-08-11T13:27:45;29.50;57.10
17728;DHT22;8984;49.268;12.302;2022-08-11T13:30:13;29.30;57.20
17728;DHT22;8984;49.268;12.302;2022-08-11T13:32:59;29.20;57.70
17728;DHT22;8984;49.268;12.302;2022-08-11T13:35:29;29.20;57.70
17728;DHT22;8984;49.268;12.302;2022-08-11T13:37:57;29.20;58.30
17728;DHT22;8984;49.268;12.302;2022-08-11T13:40:27;29.20;58.20
17728;DHT22;8984;49.268;12.302;2022-08-11T13:42:55;29.30;57.70
17728;DHT22;8984;49.268;12.302;2022-08-11T13:45:24;29.50;57.40
17728;DHT22;8984;49.268;12.302;2022-08-11T13:47:54;29.60;57.20
17728;DHT22;8984;49.268;12.302;2022-08-11T13:50:22;29.60;57.00
17728;DHT22;8984;49.268;12.302;2022-08-11T13:53:14;29.60;56.90
17728;DHT22;8984;49.268;12.302;2022-08-11T13:55:43;29.50;57.20
17728;DHT22;8984;49.268;12.302;2022-08-11T13:58:12;29.30;57.70
17728;DHT22;8984;49.268;12.302;2022-08-11T14:00:40;29.40;57.40
17728;DHT22;8984;49.268;12.302;2022-08-11T14:03:11;29.50;56.80
17728;DHT22;8984;49.268;12.302;2022-08-11T14:05:41;29.50;56.40
17728;DHT22;8984;49.268;12.302;2022-08-11T14:08:15;29.70;56.50
17728;DHT22;8984;49.268;12.302;2022-08-11T14:10:44;29.70;56.40
17728;DHT22;8984;49.268;12.302;2022-08-11T14:13:34;29.70;56.20
17728;DHT22;8984;49.268;12.302;2022-08-11T14:16:07;29.50;56.20
17728;DHT22;8984;49.268;12.302;2022-08-11T14:18:41;29.00;56.20
17728;DHT22;8984;49.268;12.302;2022-08-11T14:21:11;29.20;56.00
17728;DHT22;8984;49.268;12.302;2022-08-11T14:24:00;29.50;54.70
17728;DHT22;8984;49.268;12.302;2022-08-11T14:26:29;29.10;55.00
17728;DHT22;8984;49.268;12.302;2022-08-11T14:29:05;29.40;56.00
17728;DHT22;8984;49.268;12.302;2022-08-11T14:31:36;29.70;56.10
17728;DHT22;8984;49.268;12.302;2022-08-11T14:34:05;29.70;55.90
17728;DHT22;8984;49.268;12.302;2022-08-11T14:36:35;29.90;55.90
17728;DHT22;8984;49.268;12.302;2022-08-11T14:39:06;29.60;56.40
17728;DHT22;8984;49.268;12.302;2022-08-11T14:41:37;29.70;56.50
17728;DHT22;8984;49.268;12.302;2022-08-11T14:44:22;29.20;57.50
17728;DHT22;8984;49.268;12.302;2022-08-11T14:47:07;29.00;57.30
17728;DHT22;8984;49.268;12.302;2022-08-11T14:49:40;29.00;57.40
17728;DHT22;8984;49.268;12.302;2022-08-11T14:52:09;29.20;57.40
17728;DHT22;8984;49.268;12.302;2022-08-11T14:54:43;29.30;56.70
17728;DHT22;8984;49.268;12.302;2022-08-11T14:57:29;29.30;57.10
17728;DHT22;8984;49.268;12.302;2022-08-11T15:00:00;29.40;57.50
17728;DHT22;8984;49.268;12.302;2022-08-11T15:02:29;29.50;57.60
17728;DHT22;8984;49.268;12.302;2022-08-11T15:05:14;29.60;57.00
17728;DHT22;8984;49.268;12.302;2022-08-11T15:07:41;29.40;56.60
17728;DHT22;8984;49.268;12.302;2022-08-11T15:10:10;29.40;57.40
17728;DHT22;8984;49.268;12.302;2022-08-11T15:12:39;29.30;57.50
17728;DHT22;8984;49.268;12.302;2022-08-11T15:15:08;29.40;57.30
17728;DHT22;8984;49.268;12.302;2022-08-11T15:17:56;29.30;56.90
17728;DHT22;8984;49.268;12.302;2022-08-11T15:20:25;29.20;57.30
17728;DHT22;8984;49.268;12.302;2022-08-11T15:23:10;29.20;57.50
17728;DHT22;8984;49.268;12.302;2022-08-11T15:25:59;28.90;57.70
17728;DHT22;8984;49.268;12.302;2022-08-11T15:28:29;28.80;57.70
17728;DHT22;8984;49.268;12.302;2022-08-11T15:31:29;29.00;57.60
17728;DHT22;8984;49.268;12.302;2022-08-11T15:34:16;28.90;57.10
17728;DHT22;8984;49.268;12.302;2022-08-11T15:37:07;29.00;57.20
17728;DHT22;8984;49.268;12.302;2022-08-11T15:40:00;29.20;56.90
17728;DHT22;8984;49.268;12.302;2022-08-11T15:42:50;28.80;57.00
17728;DHT22;8984;49.268;12.302;2022-08-11T15:45:38;28.80;56.70
17728;DHT22;8984;49.268;12.302;2022-08-11T15:48:22;29.00;56.70
17728;DHT22;8984;49.268;12.302;2022-08-11T15:50:53;28.90;56.30
17728;DHT22;8984;49.268;12.302;2022-08-11T15:53:26;28.90;56.40
17728;DHT22;8984;49.268;12.302;2022-08-11T15:55:55;28.90;56.80
17728;DHT22;8984;49.268;12.302;2022-08-11T15:58:29;29.10;56.50
17728;DHT22;8984;49.268;12.302;2022-08-11T16:01:14;28.80;57.20
17728;DHT22;8984;49.268;12.302;2022-08-11T16:04:05;28.70;57.30
17728;DHT22;8984;49.268;12.302;2022-08-11T16:06:47;28.70;57.60
17728;DHT22;8984;49.268;12.302;2022-08-11T16:09:19;28.90;57.40
17728;DHT22;8984;49.268;12.302;2022-08-11T16:11:48;28.80;58.10
17728;DHT22;8984;49.268;12.302;2022-08-11T16:14:18;28.70;57.70
17728;DHT22;8984;49.268;12.302;2022-08-11T16:17:06;28.70;57.70
17728;DHT22;8984;49.268;12.302;2022-08-11T16:19:34;28.60;57.80
17728;DHT22;8984;49.268;12.302;2022-08-11T16:22:05;28.40;58.10
17728;DHT22;8984;49.268;12.302;2022-08-11T16:24:35;28.30;58.70
17728;DHT22;8984;49.268;12.302;2022-08-11T16:27:04;28.40;58.70
17728;DHT22;8984;49.268;12.302;2022-08-11T16:29:35;28.40;59.30
17728;DHT22;8984;49.268;12.302;2022-08-11T16:32:04;28.10;59.60
17728;DHT22;8984;49.268;12.302;2022-08-11T16:34:49;28.20;59.60
17728;DHT22;8984;49.268;12.302;2022-08-11T16:37:35;28.20;59.20
17728;DHT22;8984;49.268;12.302;2022-08-11T16:40:20;28.30;59.20
17728;DHT22;8984;49.268;12.302;2022-08-11T16:42:51;28.10;59.00
17728;DHT22;8984;49.268;12.302;2022-08-11T16:45:40;28.20;59.00
17728;DHT22;8984;49.268;12.302;2022-08-11T16:48:27;28.30;59.20
17728;DHT22;8984;49.268;12.302;2022-08-11T16:50:56;28.30;59.30
17728;DHT22;8984;49.268;12.302;2022-08-11T16:53:27;28.10;60.00
17728;DHT22;8984;49.268;12.302;2022-08-11T16:55:55;27.80;60.60
17728;DHT22;8984;49.268;12.302;2022-08-11T16:58:26;27.60;60.80
17728;DHT22;8984;49.268;12.302;2022-08-11T17:01:13;27.60;61.40
17728;DHT22;8984;49.268;12.302;2022-08-11T17:03:44;27.50;61.70
17728;DHT22;8984;49.268;12.302;2022-08-11T17:06:32;27.40;62.00
17728;DHT22;8984;49.268;12.302;2022-08-11T17:09:20;27.10;62.40
17728;DHT22;8984;49.268;12.302;2022-08-11T17:12:07;27.00;62.90
17728;DHT22;8984;49.268;12.302;2022-08-11T17:14:55;26.90;63.00
17728;DHT22;8984;49.268;12.302;2022-08-11T17:17:26;26.90;63.30